createdAt,value
2017-08-27T00:00:02.947Z,17.6
2017-08-27T00:15:02.575Z,17.8
2017-08-27T00:30:03.178Z,17.4
2017-08-27T00:45:02.790Z,17.2
2017-08-27T01:00:03.386Z,17.2
2017-08-27T01:15:02.963Z,16.9
2017-08-27T01:30:02.693Z,17.1
2017-08-27T01:45:03.256Z,16.9
2017-08-27T02:00:02.827Z,16.6
2017-08-27T02:15:03.456Z,16.6
2017-08-27T02:30:04.136Z,16.7
2017-08-27T02:45:02.743Z,16.5
2017-08-27T03:00:04.725Z,16.2
2017-08-27T03:15:03.392Z,16.3
2017-08-27T03:30:03.198Z,16.2
2017-08-27T03:45:03.435Z,15.9
2017-08-27T04:00:09.537Z,15.9
2017-08-27T04:15:06.425Z,15.7
2017-08-27T04:30:06.367Z,15.6
2017-08-27T04:45:05.393Z,15.6
2017-08-27T05:00:07.026Z,15.7
2017-08-27T05:15:06.556Z,15.9
2017-08-27T05:30:06.521Z,16.2
2017-08-27T05:45:05.084Z,16.2
2017-08-27T06:00:06.817Z,16.6
2017-08-27T06:15:05.929Z,17.1
2017-08-27T06:30:06.089Z,17.8
2017-08-27T06:45:06.043Z,18.6
2017-08-27T07:00:06.487Z,18.9
2017-08-27T07:15:06.128Z,19.4
2017-08-27T07:30:05.937Z,19.8
2017-08-27T07:45:06.086Z,20.9
2017-08-27T08:00:06.473Z,21.7
2017-08-27T08:15:06.233Z,22.9
2017-08-27T08:30:06.040Z,24
2017-08-27T08:45:04.901Z,24.6
2017-08-27T09:00:06.354Z,25.4
2017-08-27T09:15:04.646Z,25.9
2017-08-27T09:30:05.376Z,26.4
2017-08-27T09:45:06.336Z,26.1
2017-08-27T10:00:05.882Z,27.1
2017-08-27T10:15:05.570Z,27.1
2017-08-27T10:30:05.341Z,26.7
2017-08-27T10:45:05.510Z,26.4
2017-08-27T11:00:04.980Z,27.2
2017-08-27T11:15:05.469Z,27.4
2017-08-27T11:30:05.401Z,28.6
2017-08-27T11:45:04.832Z,28.3
2017-08-27T12:00:06.198Z,29.1
2017-08-27T12:15:05.306Z,27.5
2017-08-27T12:30:05.660Z,27.2
2017-08-27T12:45:04.707Z,26.2
2017-08-27T13:00:05.731Z,25.6
2017-08-27T13:15:04.796Z,25
2017-08-27T13:30:06.311Z,24.2
2017-08-27T13:45:06.085Z,24
2017-08-27T14:00:04.606Z,23.3
2017-08-27T14:15:06.105Z,23.2
2017-08-27T14:30:06.093Z,22.4
2017-08-27T14:45:05.822Z,23.4
2017-08-27T15:00:06.197Z,22.7
2017-08-27T15:15:05.945Z,23
2017-08-27T15:30:05.992Z,22.3
2017-08-27T15:45:06.150Z,21.9
2017-08-27T16:00:05.701Z,22.6
2017-08-27T16:15:05.755Z,22.6
2017-08-27T16:30:05.550Z,22.6
2017-08-27T16:45:04.196Z,21.8
2017-08-27T17:00:05.587Z,21.8
2017-08-27T17:15:05.569Z,21.5
2017-08-27T17:30:05.529Z,21.1
2017-08-27T17:45:04.313Z,20.8
2017-08-27T18:00:04.303Z,20.2
2017-08-27T18:15:03.999Z,20.4
2017-08-27T18:30:02.716Z,20.2
2017-08-27T18:45:03.264Z,20.3
2017-08-27T19:00:03.050Z,20.3
2017-08-27T19:15:02.673Z,20.1
2017-08-27T19:30:03.428Z,19.9
2017-08-27T19:45:03.078Z,19.8
2017-08-27T20:00:02.684Z,19.8
2017-08-27T20:15:03.260Z,19.6
2017-08-27T20:30:02.955Z,19.8
2017-08-27T20:45:02.598Z,19.1
2017-08-27T21:00:03.209Z,19.1
2017-08-27T21:15:02.786Z,19.2
2017-08-27T21:30:03.502Z,18.8
2017-08-27T21:45:03.070Z,18.8
2017-08-27T22:00:04.089Z,18.6
2017-08-27T22:15:03.133Z,18.4
2017-08-27T22:30:03.163Z,18.1
2017-08-27T22:45:03.533Z,18.1
2017-08-27T23:00:03.169Z,18
2017-08-27T23:15:02.810Z,17.9
2017-08-27T23:30:03.543Z,17.9
2017-08-27T23:45:03.079Z,17.7
